Northwood, Ohio
Current Conditions -  °F | °C
As of 9:53 AM on Saturday 25 Oct 2014 (Local Time) from KTDZ Reporting Station
Clear Clear  
Wind Chill: 57°   Ceiling: Unl
Heat Index: 57°   Visibility: 7mi
Dew Point: 51°   Wind: 14mph
Humidity: 81%   Direction: 250°WSW
Pressure: 29.88"   Gusts: NA
Location:  41.61°N, 83.48°W
Report Text: KTDZ 251353Z AUTO 25012KT 7SM CLR 14/11 A2988 RMK AO2 SLP117 T01390106 TSNO
Loading
Personal Weather Stations






























Interactive Weather Map
Tropical Storm Tracking
New forecast layout! Learn more

10-Day Weather Forecast

Advertisements
Track Severe Weather on mobile